Details From KICT - Wichita Mid Continent
To KOJC - Olathe - Johnson Co Exec
Flight Number -
Tags Generated
Created
Modified
Stats Distance 146 nm / 271 km
Max Altitude 0 ft / 0 m
Waypoints 2
Social Downloads 1
Likes 0
Share VATSIM

Download

Looking for another format? Having issues loading an existing format? Contact us
Advertisement - Login to hide

Notes

Generated

Route

KICT KOJC

ID Type Via Altitude Latitude Longitude Leg Dist Tot Dist Heading (true) Name
O KICT APT - 0 ft / 0 m 37.65754˚ -97.44007˚ - 0 nm - -
O KOJC APT - 0 ft / 0 m 38.85322˚ -94.73757˚ 146 nm 146 nm 60° / 61° Olathe - Johnson Co Exec

Altitude Profile

Advertisement - Login to hide

KICT

Details ICAO KICT (ICT)
Name Wichita Mid Continent
Region United States
Timezone America/Chicago (UTC-6.0)
Stats Elevation 1,333 ft / 406 m (AMSL)
Location 37.650182° -97.432173°
Runways 3
Magnetic Variation 3.663° E

METAR

KICT 110353Z 27006KT 10SM CLR 03/M07 A3019 RMK AO2 SLP227 T00331072 $

Decode

TAF

TAF KICT 102338Z 1100/1124 27006KT P6SM FEW250 FM111500 31013KT P6SM SCT250 FM111700 33020G28KT P6SM SCT250

Decode

Departure Runways

ID Width Length Bearing (true) Bearing (mag) Surface Threshold Offset Overrun Length
01L 151 ft / 46 m 10,317 ft / 3,145 m 19.92° 16.26° Concrete 0 ft / 0 m 200 ft / 61 m
01R 151 ft / 46 m 7,313 ft / 2,229 m 19.93° 16.27° Concrete 0 ft / 0 m 200 ft / 61 m
14 151 ft / 46 m 6,307 ft / 1,922 m 150.10° 146.44° Concrete 0 ft / 0 m 0 ft / 0 m
19L 151 ft / 46 m 7,313 ft / 2,229 m 199.94° 196.28° Concrete 0 ft / 0 m 200 ft / 61 m
19R 151 ft / 46 m 10,317 ft / 3,145 m 199.92° 196.26° Concrete 0 ft / 0 m 200 ft / 61 m
32 151 ft / 46 m 6,307 ft / 1,922 m 330.10° 326.44° Concrete 0 ft / 0 m 0 ft / 0 m

KOJC

Details ICAO KOJC
Name Olathe - Johnson Co Exec
Region United States
Timezone America/Chicago (UTC-6.0)
Stats Elevation 1,096 ft / 334 m (AMSL)
Location 38.847597° -94.737583°
Runways 1
Magnetic Variation 1.788° E

METAR

KOJC 110353Z AUTO 00000KT 10SM CLR 05/M05 A3014 RMK AO2 SLP210 T00501050

Decode

TAF

Not found

Destination Runways

ID Width Length Bearing (true) Bearing (mag) Surface Threshold Offset Overrun Length
18 75 ft / 23 m 4,105 ft / 1,251 m 180.13° 178.34° Concrete 0 ft / 0 m 0 ft / 0 m
36 75 ft / 23 m 4,105 ft / 1,251 m 0.13° 358.34° Concrete 0 ft / 0 m 0 ft / 0 m

Approach Navaids

Runway Type Ident Frequency Range Bearing (true) Bearing (mag) Slope Elevation
18 Localiser IOJC 111.10 MHz 18 nm / 33 km 180.13° 178.34° - 1,096 ft / 334 m (AMSL)
36 Localiser IPKX 108.30 MHz 18 nm / 33 km 0.13° 358.34° - 1,096 ft / 334 m (AMSL)

Popular Alternatives